Time;durP1;ratioP1;P1;durP2;ratioP2;P2;SDS_P1;SDS_P2;PMS_P1;PMS_P2;Temp;Humidity;BMP_temperature;BMP_pressure;BME280_temperature;BME280_humidity;BME280_pressure;Samples;Min_cycle;Max_cycle;Signal;HPM_P1;HPM_P2
2022/11/02 00:00:30;;;;;;;19.73;11.57;;;;;;;8.87;92.40;98113.83;1697775;83;21059;-72
2022/11/02 00:02:58;;;;;;;18.60;11.53;;;;;;;8.87;92.20;98116.47;1708231;84;21083;-72
2022/11/02 00:05:26;;;;;;;20.95;11.65;;;;;;;8.88;92.92;98106.34;1701377;84;21429;-72
2022/11/02 00:07:54;;;;;;;20.37;12.37;;;;;;;8.94;92.50;98114.13;1700556;83;21040;-72
2022/11/02 00:10:23;;;;;;;21.65;12.50;;;;;;;8.94;92.59;98114.13;1697725;84;21130;-72
2022/11/02 00:12:51;;;;;;;18.82;10.72;;;;;;;8.96;92.61;98107.03;1683608;83;20972;-72
2022/11/02 00:15:18;;;;;;;18.37;10.95;;;;;;;9.03;92.93;98099.84;1697580;84;21052;-73
2022/11/02 00:17:49;;;;;;;16.20;10.93;;;;;;;9.01;91.82;98101.66;1700882;84;21053;-72
2022/11/02 00:20:18;;;;;;;18.67;10.43;;;;;;;8.85;91.99;98108.13;1700917;84;21041;-71
2022/11/02 00:22:49;;;;;;;20.43;11.85;;;;;;;8.70;92.12;98109.33;1699982;83;21010;-72
2022/11/02 00:25:19;;;;;;;19.07;11.38;;;;;;;8.62;92.21;98109.92;1700766;83;21023;-73
2022/11/02 00:27:46;;;;;;;19.92;11.90;;;;;;;8.60;92.32;98098.97;1704462;83;21004;-72
2022/11/02 00:30:14;;;;;;;19.12;12.68;;;;;;;8.60;92.67;98095.00;1701078;83;21046;-71
2022/11/02 00:32:40;;;;;;;21.65;11.35;;;;;;;8.62;92.60;98087.47;1693124;83;21462;-72
2022/11/02 00:35:09;;;;;;;22.42;11.88;;;;;;;8.53;93.01;98092.49;1708446;83;20968;-73
2022/11/02 00:37:36;;;;;;;24.02;11.22;;;;;;;8.42;92.51;98094.42;1704809;83;21509;-73
2022/11/02 00:40:05;;;;;;;28.85;12.50;;;;;;;8.34;92.67;98087.11;1706679;83;21078;-72
2022/11/02 00:42:32;;;;;;;29.18;11.80;;;;;;;8.22;93.08;98086.42;1707704;83;20996;-73
2022/11/02 00:44:59;;;;;;;24.00;12.10;;;;;;;8.14;92.90;98085.25;1709814;83;21048;-72
2022/11/02 00:47:26;;;;;;;21.65;11.38;;;;;;;8.07;93.32;98086.27;1697975;83;21048;-72
2022/11/02 00:49:53;;;;;;;30.90;13.10;;;;;;;8.00;93.35;98090.78;1706063;83;21078;-73
2022/11/02 00:52:19;;;;;;;33.15;14.07;;;;;;;7.95;93.07;98090.44;1690893;83;21024;-73
2022/11/02 00:54:48;;;;;;;20.70;11.75;;;;;;;7.88;93.78;98093.63;1706817;83;21102;-73
2022/11/02 00:57:14;;;;;;;22.30;11.97;;;;;;;7.81;93.91;98081.45;1708114;84;21012;-73
2022/11/02 00:59:41;;;;;;;21.25;11.45;;;;;;;7.78;93.40;98085.01;1707384;83;21004;-73
2022/11/02 01:02:08;;;;;;;23.40;11.88;;;;;;;7.78;93.38;98081.05;1706794;83;21091;-73
2022/11/02 01:04:35;;;;;;;22.52;12.40;;;;;;;7.79;93.39;98074.88;1706340;83;21501;-73
2022/11/02 01:07:03;;;;;;;21.52;11.75;;;;;;;7.80;94.01;98076.61;1708308;82;20956;-68
2022/11/02 01:09:29;;;;;;;28.62;12.98;;;;;;;7.83;94.21;98080.52;1718161;83;20998;-67
2022/11/02 01:11:56;;;;;;;28.38;14.45;;;;;;;7.82;94.08;98080.55;1707029;82;21071;-67
2022/11/02 01:14:22;;;;;;;27.48;13.55;;;;;;;7.77;95.02;98088.08;1704753;82;21023;-73
2022/11/02 01:16:56;;;;;;;24.07;12.93;;;;;;;7.75;94.76;98086.37;1705251;83;21422;-73
2022/11/02 01:19:27;;;;;;;;;;;;;;;7.73;95.85;98090.34;1707728;83;21496;-73
2022/11/02 01:21:52;;;;;;;20.05;11.68;;;;;;;7.75;94.75;98092.97;1705356;82;20126;-73
2022/11/02 01:24:19;;;;;;;18.40;11.22;;;;;;;7.73;95.02;98095.63;1707411;82;20999;-73
2022/11/02 01:26:51;;;;;;;16.70;10.80;;;;;;;7.73;95.19;98086.86;1707949;82;21004;-73
2022/11/02 01:29:18;;;;;;;19.35;12.28;;;;;;;7.75;95.04;98092.53;1708207;82;21461;-74
2022/11/02 01:31:47;;;;;;;19.55;11.33;;;;;;;7.82;94.45;98093.73;1706070;82;21489;-74
2022/11/02 01:34:15;;;;;;;16.07;10.50;;;;;;;7.85;94.54;98098.97;1706626;84;21028;-73
2022/11/02 01:36:43;;;;;;;17.62;10.23;;;;;;;7.87;94.67;98092.77;1705835;82;21004;-73
2022/11/02 01:39:10;;;;;;;17.05;10.40;;;;;;;7.92;94.60;98094.88;1705443;83;21008;-73
2022/11/02 01:41:37;;;;;;;13.58;8.90;;;;;;;7.98;94.42;98094.35;1703567;83;21060;-73
2022/11/02 01:44:27;;;;;;;15.43;9.58;;;;;;;8.02;94.47;98090.30;1708231;82;21297;-74
2022/11/02 01:47:08;;;;;;;14.68;10.10;;;;;;;8.11;94.51;98085.33;1701337;82;21063;-74
2022/11/02 01:49:41;;;;;;;13.60;9.30;;;;;;;8.19;94.54;98094.42;1706551;84;21027;-74
2022/11/02 01:52:14;;;;;;;14.28;9.38;;;;;;;8.22;94.31;98088.22;1708182;83;21441;-74
2022/11/02 01:54:45;;;;;;;14.25;9.25;;;;;;;8.26;94.20;98089.91;1707394;84;20956;-74
2022/11/02 01:57:16;;;;;;;16.55;10.13;;;;;;;8.30;94.40;98092.44;1704146;83;21488;-74
2022/11/02 01:59:54;;;;;;;15.63;9.90;;;;;;;8.28;93.58;98094.25;1706010;83;21004;-74
2022/11/02 02:02:24;;;;;;;14.85;9.55;;;;;;;8.23;93.38;98089.95;1714417;83;21012;-74
2022/11/02 02:04:59;;;;;;;16.55;9.15;;;;;;;8.16;93.70;98082.16;1708251;82;20991;-74
2022/11/02 02:07:27;;;;;;;13.88;9.15;;;;;;;8.18;93.44;98087.41;1705906;82;21031;-74
2022/11/02 02:09:55;;;;;;;19.60;10.00;;;;;;;8.10;93.43;98087.52;1708053;83;22181;-74
2022/11/02 02:12:24;;;;;;;17.30;10.72;;;;;;;8.06;93.36;98093.31;1708097;82;21039;-74
2022/11/02 02:14:52;;;;;;;16.67;10.43;;;;;;;8.01;93.22;98092.99;1706609;82;21027;-74
2022/11/02 02:17:45;;;;;;;17.75;10.72;;;;;;;7.97;93.11;98097.89;1707579;82;21048;-73
2022/11/02 02:20:40;;;;;;;15.53;9.53;;;;;;;7.92;93.32;98099.28;1680312;84;21084;-74
2022/11/02 02:23:23;;;;;;;18.82;9.98;;;;;;;7.88;93.65;98097.58;1704100;83;21508;-73
2022/11/02 02:25:59;;;;;;;16.20;9.98;;;;;;;7.79;93.33;98096.86;1691687;82;21495;-73
2022/11/02 02:28:50;;;;;;;19.27;10.43;;;;;;;7.65;93.25;98096.22;1706225;83;21097;-74
2022/11/02 02:31:36;;;;;;;18.75;9.98;;;;;;;7.63;93.41;98094.03;1705134;84;21635;-73
2022/11/02 02:34:19;;;;;;;15.38;10.23;;;;;;;7.58;93.70;98095.87;1702821;83;22147;-73
2022/11/02 02:37:10;;;;;;;15.18;10.23;;;;;;;7.57;93.10;98096.78;1705788;83;21489;-73
2022/11/02 02:39:45;;;;;;;14.30;9.65;;;;;;;7.53;93.17;98107.83;1695806;83;21030;-73
2022/11/02 02:42:33;;;;;;;16.75;9.70;;;;;;;7.46;93.59;98101.77;1705760;83;20974;-74
2022/11/02 02:45:23;;;;;;;15.45;10.25;;;;;;;7.40;93.40;98100.55;1698134;84;21016;-73
2022/11/02 02:48:18;;;;;;;18.60;9.88;;;;;;;7.36;93.20;98091.80;1663584;84;21449;-73
2022/11/02 02:50:55;;;;;;;29.30;10.68;;;;;;;7.33;93.50;98097.14;1704442;83;21002;-73
2022/11/02 02:53:33;;;;;;;16.70;9.83;;;;;;;7.21;93.44;98094.23;1705513;84;20980;-73
2022/11/02 02:56:01;;;;;;;19.87;11.08;;;;;;;7.16;93.43;98093.86;1705008;83;21011;-73
2022/11/02 02:58:34;;;;;;;25.48;10.43;;;;;;;7.17;93.99;98085.94;1699402;83;21019;-73
2022/11/02 03:01:03;;;;;;;18.12;10.85;;;;;;;7.12;94.35;98083.38;1707954;84;21019;-73
2022/11/02 03:03:32;;;;;;;18.27;11.85;;;;;;;7.12;94.53;98095.67;1675505;84;20976;-73
2022/11/02 03:06:16;;;;;;;25.82;11.20;;;;;;;7.12;93.75;98089.09;1706131;84;21437;-73
2022/11/02 03:08:53;;;;;;;23.10;11.33;;;;;;;7.10;93.68;98090.42;1700313;84;20991;-73
2022/11/02 03:11:22;;;;;;;29.48;11.28;;;;;;;7.03;94.33;98095.37;1707307;83;21056;-73
2022/11/02 03:14:38;;;;;;;21.05;9.95;;;;;;;6.96;94.36;98098.52;1708330;83;21420;-73
2022/11/02 03:17:18;;;;;;;19.65;10.40;;;;;;;6.90;94.35;98100.37;1657722;85;21489;-73
2022/11/02 03:20:16;;;;;;;23.80;9.95;;;;;;;6.84;94.64;98094.28;1701687;83;20998;-73
2022/11/02 03:23:06;;;;;;;16.62;9.90;;;;;;;6.83;94.57;98098.25;1655348;85;21138;-73
2022/11/02 03:25:39;;;;;;;19.90;9.38;;;;;;;6.83;94.56;98103.52;1695253;83;21017;-73
2022/11/02 03:28:29;;;;;;;24.12;8.60;;;;;;;6.82;94.87;98113.17;1700860;83;21561;-73
2022/11/02 03:31:05;;;;;;;18.73;9.13;;;;;;;6.78;95.09;98104.91;1682166;85;21035;-73
2022/11/02 03:33:43;;;;;;;13.08;8.10;;;;;;;6.75;95.04;98107.57;1682416;85;21039;-73
2022/11/02 03:36:25;;;;;;;13.48;9.55;;;;;;;6.77;95.33;98102.29;1682420;85;20997;-73
2022/11/02 03:38:56;;;;;;;18.07;8.88;;;;;;;6.77;94.93;98095.23;1681953;85;20984;-73
2022/11/02 03:41:26;;;;;;;13.08;7.53;;;;;;;6.71;94.97;98088.73;1681587;85;20996;-73
2022/11/02 03:43:59;;;;;;;18.00;8.08;;;;;;;6.70;94.63;98100.17;1682398;85;20972;-73
2022/11/02 03:46:27;;;;;;;19.55;8.00;;;;;;;6.64;94.63;98102.42;1682128;85;21044;-73
2022/11/02 03:48:56;;;;;;;15.72;7.95;;;;;;;6.57;94.62;98105.56;1681573;85;21414;-73
2022/11/02 03:51:25;;;;;;;10.80;6.97;;;;;;;6.54;94.80;98103.42;1682162;85;21056;-73
2022/11/02 03:54:00;;;;;;;11.63;7.55;;;;;;;6.52;94.76;98110.02;1682256;85;21044;-73
2022/11/02 03:56:33;;;;;;;12.23;8.03;;;;;;;6.49;94.52;98110.50;1682352;85;21063;-73
2022/11/02 03:58:59;;;;;;;16.40;7.70;;;;;;;6.51;94.66;98109.59;1682158;85;21464;-73
2022/11/02 04:01:28;;;;;;;11.68;7.33;;;;;;;6.46;94.64;98108.34;1682263;85;21011;-72
2022/11/02 04:03:56;;;;;;;12.40;8.10;;;;;;;6.39;94.78;98107.12;1682414;85;21047;-72
2022/11/02 04:06:25;;;;;;;11.05;8.00;;;;;;;6.34;94.75;98108.03;1681256;85;20972;-73
2022/11/02 04:08:52;;;;;;;14.80;8.55;;;;;;;6.34;94.76;98111.98;1680812;85;21007;-73
2022/11/02 04:19:26;;;;;;;11.80;7.90;;;;;;;6.29;95.15;98108.96;1681869;85;21031;-73
2022/11/02 04:19:28;;;;;;;12.80;8.28;;;;;;;6.28;95.02;98116.44;1676438;85;21421;-74
2022/11/02 04:27:38;;;;;;;11.60;7.83;;;;;;;6.36;95.31;98111.09;1680058;85;21433;-73
2022/11/02 04:30:05;;;;;;;11.93;8.25;;;;;;;6.38;95.00;98112.81;1695763;84;21084;-74
2022/11/02 04:35:30;;;;;;;9.93;7.30;;;;;;;6.37;94.85;98111.51;1698382;83;21048;-73
2022/11/02 04:40:44;;;;;;;14.38;8.33;;;;;;;6.30;94.94;98109.38;1695613;83;20965;-73
2022/11/02 04:43:11;;;;;;;12.60;8.40;;;;;;;6.26;94.64;98114.24;1697685;84;21092;-73
2022/11/02 04:45:38;;;;;;;12.37;8.08;;;;;;;6.25;94.85;98109.88;1698546;83;20994;-74
2022/11/02 04:48:08;;;;;;;11.68;8.10;;;;;;;6.25;94.83;98105.49;1697522;84;21028;-74
2022/11/02 04:50:36;;;;;;;17.65;7.90;;;;;;;6.25;94.52;98112.50;1698710;84;21495;-74
2022/11/02 04:53:06;;;;;;;13.13;8.75;;;;;;;6.19;93.89;98118.27;1699063;83;20953;-74
2022/11/02 04:55:34;;;;;;;18.12;8.95;;;;;;;6.16;94.21;98117.00;1698485;84;21093;-74
2022/11/02 04:58:00;;;;;;;14.35;10.23;;;;;;;6.17;94.44;98112.16;1697508;83;21024;-74
2022/11/02 05:00:29;;;;;;;13.43;8.30;;;;;;;6.16;94.59;98115.68;1698388;83;21059;-74
2022/11/02 05:02:55;;;;;;;17.62;9.30;;;;;;;6.13;94.25;98117.02;1697796;83;21013;-74
2022/11/02 05:05:22;;;;;;;15.83;8.35;;;;;;;6.07;94.38;98128.45;1698006;83;21016;-74
2022/11/02 05:07:50;;;;;;;14.35;8.50;;;;;;;5.99;93.94;98122.38;1681991;84;21402;-74
2022/11/02 05:10:17;;;;;;;15.03;9.25;;;;;;;5.96;94.24;98132.92;1702085;84;21003;-73
2022/11/02 05:12:45;;;;;;;16.20;9.13;;;;;;;5.94;94.63;98142.14;1702031;83;20965;-73
2022/11/02 05:15:12;;;;;;;16.02;9.58;;;;;;;5.94;94.20;98136.02;1701880;84;21019;-74
2022/11/02 05:17:38;;;;;;;17.85;9.75;;;;;;;5.88;94.52;98143.94;1677893;84;21024;-73
2022/11/02 05:20:07;;;;;;;16.27;9.00;;;;;;;5.84;94.81;98136.95;1702004;83;21474;-73
2022/11/02 05:22:34;;;;;;;24.23;10.60;;;;;;;5.77;94.93;98149.31;1677899;84;20992;-74
2022/11/02 05:25:00;;;;;;;19.27;9.80;;;;;;;5.73;94.61;98152.84;1702094;83;21057;-73
2022/11/02 05:27:27;;;;;;;16.55;9.53;;;;;;;5.73;94.66;98147.13;1701600;84;21452;-73
2022/11/02 05:29:54;;;;;;;13.75;8.50;;;;;;;5.75;94.90;98153.27;1706009;84;21500;-73
2022/11/02 05:32:20;;;;;;;14.15;8.63;;;;;;;5.78;95.14;98153.22;1708197;84;21008;-73
2022/11/02 05:34:47;;;;;;;15.50;9.88;;;;;;;5.76;95.00;98164.20;1707275;84;21011;-73
2022/11/02 05:37:14;;;;;;;15.50;9.13;;;;;;;5.73;95.65;98163.36;1708148;84;21048;-73
2022/11/02 05:39:40;;;;;;;12.60;8.98;;;;;;;5.72;95.68;98173.45;1708110;83;21048;-73
2022/11/02 05:42:07;;;;;;;19.30;10.00;;;;;;;5.68;95.85;98171.27;1706784;82;21488;-73
2022/11/02 05:44:35;;;;;;;16.80;10.20;;;;;;;5.68;95.22;98177.41;1705017;83;20990;-74
2022/11/02 05:47:04;;;;;;;13.48;9.20;;;;;;;5.74;95.14;98183.51;1708255;83;21000;-73
2022/11/02 05:49:30;;;;;;;13.00;8.55;;;;;;;5.75;94.85;98184.82;1708173;83;20995;-74
2022/11/02 05:51:57;;;;;;;12.88;8.10;;;;;;;5.76;94.63;98194.45;1707987;83;21051;-74
2022/11/02 05:54:24;;;;;;;14.55;8.00;;;;;;;5.81;94.65;98198.34;1707654;84;20941;-74
2022/11/02 05:56:50;;;;;;;11.33;7.55;;;;;;;5.84;94.55;98200.08;1707900;83;21374;-74
2022/11/02 05:59:17;;;;;;;11.38;8.13;;;;;;;5.83;94.55;98196.60;1708231;83;21063;-74
2022/11/02 06:01:43;;;;;;;11.00;7.50;;;;;;;5.88;94.78;98204.02;1708313;84;21039;-74
2022/11/02 06:04:10;;;;;;;9.55;6.97;;;;;;;5.86;94.15;98218.06;1708243;84;20991;-74
2022/11/02 06:06:36;;;;;;;11.43;7.58;;;;;;;5.79;93.87;98225.12;1708199;83;21091;-75
2022/11/02 06:09:03;;;;;;;10.23;7.25;;;;;;;5.70;93.53;98218.17;1708355;83;21074;-74
2022/11/02 06:11:30;;;;;;;12.82;8.60;;;;;;;5.63;93.60;98223.91;1708096;83;21008;-74
2022/11/02 06:13:57;;;;;;;13.03;8.85;;;;;;;5.61;93.59;98230.91;1708278;83;21062;-74
2022/11/02 06:16:23;;;;;;;14.05;7.90;;;;;;;5.59;94.00;98233.11;1708181;83;20957;-75
2022/11/02 06:18:50;;;;;;;12.98;8.10;;;;;;;5.59;94.04;98233.11;1711125;83;20991;-75
2022/11/02 06:21:17;;;;;;;12.85;9.23;;;;;;;5.61;94.13;98234.00;1708187;84;21135;-75
2022/11/02 06:23:49;;;;;;;13.90;9.05;;;;;;;5.60;94.04;98227.85;1708137;83;20972;-75
2022/11/02 06:26:16;;;;;;;17.67;9.20;;;;;;;5.63;94.22;98230.47;1707485;84;20992;-75
2022/11/02 06:28:42;;;;;;;15.70;9.55;;;;;;;5.67;93.96;98238.78;1715278;83;20952;-74
2022/11/02 06:31:09;;;;;;;18.55;9.20;;;;;;;5.71;94.20;98233.48;1681939;85;20975;-75
2022/11/02 06:33:36;;;;;;;15.68;8.00;;;;;;;5.76;94.08;98235.22;1681454;85;21940;-75
2022/11/02 06:36:04;;;;;;;14.80;8.30;;;;;;;5.77;93.86;98232.16;1681762;85;21000;-73
2022/11/02 06:38:31;;;;;;;16.57;8.35;;;;;;;5.78;93.90;98234.75;1681459;85;21016;-73
2022/11/02 06:41:04;;;;;;;20.05;8.80;;;;;;;5.77;93.79;98238.73;1681460;85;21007;-75
2022/11/02 06:43:33;;;;;;;15.38;7.58;;;;;;;5.74;94.11;98242.25;1681706;85;21009;-75
2022/11/02 06:45:59;;;;;;;20.20;8.20;;;;;;;5.76;94.22;98246.16;1681718;85;20968;-74
2022/11/02 06:48:27;;;;;;;18.32;8.35;;;;;;;5.76;94.73;98235.22;1681772;85;21420;-74
2022/11/02 06:50:53;;;;;;;23.32;9.45;;;;;;;5.80;94.46;98245.27;1682239;85;20979;-74
2022/11/02 06:53:20;;;;;;;22.30;9.25;;;;;;;5.84;94.48;98244.37;1680343;85;21000;-74
2022/11/02 06:55:57;;;;;;;29.70;10.25;;;;;;;5.92;94.67;98237.31;1679783;85;20975;-74
2022/11/02 06:58:29;;;;;;;32.98;10.95;;;;;;;5.98;95.00;98239.00;1679562;85;21119;-75
2022/11/02 07:01:00;;;;;;;28.62;11.12;;;;;;;6.03;94.98;98233.30;1680927;85;21869;-73
2022/11/02 07:03:28;;;;;;;26.17;11.12;;;;;;;6.12;94.84;98238.07;1681079;85;21074;-73
2022/11/02 07:05:56;;;;;;;31.00;11.95;;;;;;;6.17;94.92;98234.53;1678654;85;21044;-73
2022/11/02 07:08:22;;;;;;;36.73;12.98;;;;;;;6.22;95.30;98232.31;1671724;86;21039;-73
2022/11/02 07:10:49;;;;;;;30.55;12.15;;;;;;;6.28;95.43;98229.61;1674576;85;21000;-74
2022/11/02 07:13:16;;;;;;;41.77;14.35;;;;;;;6.34;94.91;98223.86;1680437;85;21060;-74
2022/11/02 07:15:43;;;;;;;32.73;12.05;;;;;;;6.42;94.91;98225.53;1682147;85;21449;-74
2022/11/02 07:18:09;;;;;;;43.70;13.10;;;;;;;6.48;94.75;98213.66;1681997;85;21032;-74
2022/11/02 07:20:36;;;;;;;35.30;12.93;;;;;;;6.58;94.69;98217.05;1682003;85;21430;-72
2022/11/02 07:23:03;;;;;;;39.85;12.85;;;;;;;6.64;94.50;98210.40;1683387;85;21007;-73
2022/11/02 07:25:32;;;;;;;33.60;11.88;;;;;;;6.70;94.49;98210.36;1680342;85;21417;-74
2022/11/02 07:28:00;;;;;;;39.00;12.05;;;;;;;6.76;94.43;98205.91;1679541;85;21036;-73
2022/11/02 07:30:30;;;;;;;37.53;13.40;;;;;;;6.88;94.46;98205.77;1695873;83;21043;-74
2022/11/02 07:32:58;;;;;;;38.17;14.07;;;;;;;6.97;94.40;98209.61;1701966;83;20984;-74
2022/11/02 07:35:25;;;;;;;35.43;12.68;;;;;;;7.08;94.69;98215.20;1705062;84;21479;-74
2022/11/02 07:38:05;;;;;;;43.38;16.60;;;;;;;7.19;94.46;98218.56;1705745;82;21554;-74
2022/11/02 07:40:35;;;;;;;40.10;15.45;;;;;;;7.30;94.43;98230.77;1704826;83;21073;-74
2022/11/02 07:43:02;;;;;;;39.67;16.05;;;;;;;7.38;94.68;98229.77;1705770;82;20977;-74
2022/11/02 07:45:36;;;;;;;44.33;16.17;;;;;;;7.48;94.50;98233.61;1677132;83;21000;-74
2022/11/02 07:48:03;;;;;;;41.13;16.60;;;;;;;7.57;94.28;98232.61;1706166;83;21015;-74
2022/11/02 07:50:29;;;;;;;49.88;18.27;;;;;;;7.67;94.11;98234.22;1705148;84;21623;-74
2022/11/02 07:52:58;;;;;;;43.50;16.97;;;;;;;7.81;94.00;98231.41;1704920;83;21003;-74
2022/11/02 07:55:28;;;;;;;43.40;15.05;;;;;;;7.92;93.85;98228.59;1706519;82;21053;-74
2022/11/02 07:58:04;;;;;;;37.00;13.78;;;;;;;8.02;93.80;98218.78;1705896;82;21368;-70
2022/11/02 08:00:34;;;;;;;42.33;14.85;;;;;;;8.13;93.83;98219.47;1706634;84;21038;-73
2022/11/02 08:03:03;;;;;;;39.88;14.55;;;;;;;8.24;93.18;98209.18;1706364;83;21008;-72
2022/11/02 08:05:34;;;;;;;40.98;13.28;;;;;;;8.25;92.60;98210.48;1705851;82;21485;-72
2022/11/02 08:08:10;;;;;;;37.42;13.95;;;;;;;8.30;92.84;98213.02;1706889;83;20993;-73
2022/11/02 08:10:37;;;;;;;45.30;15.38;;;;;;;8.38;93.09;98216.89;1706226;83;21035;-73
2022/11/02 08:13:03;;;;;;;44.23;15.53;;;;;;;8.51;92.73;98224.14;1705681;84;21037;-72
2022/11/02 08:15:30;;;;;;;42.05;15.15;;;;;;;8.61;93.16;98218.27;1706492;84;21053;-72
2022/11/02 08:18:05;;;;;;;45.40;15.35;;;;;;;8.74;92.92;98213.62;1706039;83;21039;-73
2022/11/02 08:20:35;;;;;;;41.40;15.20;;;;;;;8.79;92.32;98213.97;1706185;83;21037;-72
2022/11/02 08:23:03;;;;;;;42.58;15.75;;;;;;;8.89;92.47;98213.80;1705833;84;21032;-73
2022/11/02 08:25:29;;;;;;;37.28;14.90;;;;;;;8.94;92.13;98220.75;1705181;83;21077;-72
2022/11/02 08:27:58;;;;;;;42.75;16.73;;;;;;;9.00;91.71;98222.85;1706646;83;20993;-73
2022/11/02 08:30:27;;;;;;;39.92;15.23;;;;;;;9.08;92.28;98220.91;1705002;83;21019;-73
2022/11/02 08:32:53;;;;;;;39.00;17.73;;;;;;;9.17;91.86;98215.44;1706064;84;20977;-73
2022/11/02 08:35:21;;;;;;;40.88;16.87;;;;;;;9.26;91.89;98218.80;1705578;84;20992;-73
2022/11/02 08:37:55;;;;;;;41.58;17.65;;;;;;;9.29;91.14;98216.08;1705758;83;21102;-73
2022/11/02 08:40:22;;;;;;;42.27;18.32;;;;;;;9.29;91.27;98216.08;1706391;83;22125;-72
2022/11/02 08:42:48;;;;;;;46.68;18.40;;;;;;;9.35;91.58;98208.03;1706270;84;21051;-73
2022/11/02 08:45:16;;;;;;;44.35;19.23;;;;;;;9.39;91.22;98216.33;1704935;83;21066;-72
2022/11/02 08:47:43;;;;;;;42.65;18.15;;;;;;;9.45;91.53;98215.31;1682995;84;21045;-72
2022/11/02 08:50:10;;;;;;;49.60;18.70;;;;;;;9.53;91.77;98214.70;1705818;83;21045;-73
2022/11/02 08:52:37;;;;;;;54.10;18.52;;;;;;;9.62;91.38;98220.23;1705445;82;21040;-73
2022/11/02 08:55:05;;;;;;;50.23;19.02;;;;;;;9.69;91.39;98216.56;1705574;83;21389;-73
2022/11/02 08:57:31;;;;;;;48.65;20.10;;;;;;;9.75;91.30;98214.20;1704612;82;21568;-73
2022/11/02 08:59:58;;;;;;;44.63;19.57;;;;;;;9.83;90.92;98218.88;1705204;82;21045;-73
2022/11/02 09:02:25;;;;;;;47.45;21.37;;;;;;;9.88;90.93;98220.97;1706250;82;20984;-73
2022/11/02 09:04:51;;;;;;;50.30;21.27;;;;;;;9.97;91.06;98224.32;1705423;83;20974;-73
2022/11/02 09:07:18;;;;;;;45.40;20.72;;;;;;;10.02;90.67;98214.02;1705226;82;21036;-73
2022/11/02 09:09:44;;;;;;;48.33;20.15;;;;;;;10.08;90.63;98206.86;1705028;83;21004;-74
2022/11/02 09:12:10;;;;;;;48.48;19.75;;;;;;;10.10;90.21;98210.33;1706059;83;20981;-73
2022/11/02 09:14:37;;;;;;;44.15;20.43;;;;;;;10.14;90.51;98212.00;1705944;83;21080;-73
2022/11/02 09:17:03;;;;;;;43.28;19.40;;;;;;;10.18;90.21;98217.64;1705395;83;21044;-73
2022/11/02 09:19:29;;;;;;;42.27;18.87;;;;;;;10.22;90.09;98208.69;1706231;84;21017;-73
2022/11/02 09:21:56;;;;;;;44.10;20.40;;;;;;;10.31;90.42;98203.64;1706270;84;20985;-73
2022/11/02 09:24:22;;;;;;;41.35;19.57;;;;;;;10.36;90.06;98204.39;1707027;83;21489;-73
2022/11/02 09:26:51;;;;;;;42.93;19.30;;;;;;;10.40;89.81;98206.06;1705515;83;20948;-73
2022/11/02 09:29:18;;;;;;;43.98;18.27;;;;;;;10.45;89.97;98208.61;1705747;83;21051;-72
2022/11/02 09:31:47;;;;;;;41.95;18.48;;;;;;;10.52;90.02;98210.20;1706800;83;21020;-72
2022/11/02 09:34:14;;;;;;;46.02;19.50;;;;;;;10.59;90.02;98204.73;1705769;84;21034;-72
2022/11/02 09:36:41;;;;;;;42.08;20.02;;;;;;;10.67;89.98;98195.66;1704993;83;21078;-73
2022/11/02 09:39:08;;;;;;;41.23;19.35;;;;;;;10.74;89.86;98195.05;1706109;83;21028;-72
2022/11/02 09:41:46;;;;;;;41.70;19.52;;;;;;;10.78;89.63;98195.38;1706669;82;21035;-73
2022/11/02 09:44:24;;;;;;;38.23;18.90;;;;;;;10.83;89.71;98192.59;1705105;83;20977;-69
2022/11/02 09:46:50;;;;;;;41.28;20.37;;;;;;;10.87;89.26;98188.09;1706233;83;21097;-70
2022/11/02 09:49:21;;;;;;;36.95;19.45;;;;;;;10.89;89.31;98186.27;1704522;83;21482;-71
2022/11/02 09:51:52;;;;;;;38.80;18.12;;;;;;;10.91;88.80;98189.28;1707098;83;21009;-70
2022/11/02 09:54:47;;;;;;;35.75;20.57;;;;;;;10.93;88.52;98189.25;1705863;84;21041;-70
2022/11/02 09:57:26;;;;;;;41.92;19.35;;;;;;;10.94;88.47;98193.63;1705852;82;20988;-71
2022/11/02 09:59:52;;;;;;;34.20;19.15;;;;;;;11.03;88.30;98201.78;1703947;83;21099;-71
2022/11/02 10:02:44;;;;;;;33.50;19.10;;;;;;;11.04;87.37;98199.09;1706705;83;20954;-71
2022/11/02 10:05:37;;;;;;;32.42;18.37;;;;;;;11.08;88.26;98196.77;1706831;83;21407;-71
2022/11/02 10:08:34;;;;;;;32.00;17.82;;;;;;;11.18;88.33;98189.88;1707251;82;21112;-70
2022/11/02 10:11:21;;;;;;;31.48;17.67;;;;;;;11.27;87.14;98182.09;1705065;82;20986;-71
2022/11/02 10:14:02;;;;;;;33.13;16.60;;;;;;;11.37;87.25;98180.91;1705426;83;21000;-70
2022/11/02 10:16:43;;;;;;;31.70;17.32;;;;;;;11.43;86.06;98184.72;1702179;83;21020;-71
2022/11/02 10:19:14;;;;;;;36.03;19.20;;;;;;;11.46;86.71;98183.28;1704397;83;21047;-71
2022/11/02 10:21:46;;;;;;;36.05;18.73;;;;;;;11.52;86.61;98175.60;1705684;83;21089;-70
2022/11/02 10:24:33;;;;;;;32.35;18.92;;;;;;;11.60;86.58;98178.02;1705486;83;21484;-71
2022/11/02 10:27:03;;;;;;;34.30;19.80;;;;;;;11.65;85.46;98182.73;1704393;83;21028;-70
2022/11/02 10:29:45;;;;;;;59.58;32.90;;;;;;;11.69;85.91;98191.02;1706866;83;21037;-71
2022/11/02 10:32:14;;;;;;;38.05;20.08;;;;;;;11.64;84.54;98195.59;1704852;84;21083;-70
2022/11/02 10:34:43;;;;;;;36.13;20.68;;;;;;;11.61;84.72;98193.02;1706112;83;20996;-71
2022/11/02 10:37:25;;;;;;;40.17;22.10;;;;;;;11.60;84.38;98187.31;1706320;83;21079;-72
2022/11/02 10:40:12;;;;;;;38.80;21.68;;;;;;;11.57;84.57;98178.98;1705710;83;21088;-72
2022/11/02 10:42:44;;;;;;;38.23;19.98;;;;;;;11.57;85.03;98176.33;1705588;83;21425;-71
2022/11/02 10:45:33;;;;;;;38.65;20.35;;;;;;;11.65;85.52;98179.19;1705335;83;21416;-72
2022/11/02 10:48:31;;;;;;;36.45;22.25;;;;;;;11.70;84.54;98171.95;1705787;84;21015;-71
2022/11/02 10:51:06;;;;;;;35.48;21.90;;;;;;;11.74;84.98;98169.17;1705783;84;21671;-70
2022/11/02 10:53:39;;;;;;;34.27;19.77;;;;;;;11.82;84.28;98171.58;1705370;83;21076;-69
2022/11/02 10:56:22;;;;;;;34.95;19.67;;;;;;;11.82;83.84;98170.25;1704937;82;21071;-73
2022/11/02 10:59:06;;;;;;;34.78;20.97;;;;;;;11.79;83.72;98166.83;1705595;84;21138;-73
2022/11/02 11:01:33;;;;;;;33.58;19.10;;;;;;;11.79;84.09;98155.73;1705030;84;21020;-73
2022/11/02 11:04:23;;;;;;;32.98;20.17;;;;;;;11.82;83.31;98154.31;1706306;83;21039;-67
2022/11/02 11:06:50;;;;;;;34.70;20.57;;;;;;;11.79;84.17;98144.27;1703617;84;21098;-67
2022/11/02 11:09:34;;;;;;;33.33;19.57;;;;;;;11.85;84.35;98142.73;1705556;82;21056;-67
2022/11/02 11:12:08;;;;;;;40.65;27.00;;;;;;;11.87;84.17;98137.77;1706597;83;21029;-67
2022/11/02 11:14:54;;;;;;;40.03;21.40;;;;;;;11.92;84.18;98142.92;1703831;84;21054;-67
2022/11/02 11:17:33;;;;;;;39.42;21.00;;;;;;;11.99;84.56;98135.18;1705768;83;21457;-66
2022/11/02 11:20:00;;;;;;;35.23;21.82;;;;;;;12.08;84.46;98129.19;1705891;83;21008;-67
2022/11/02 11:22:40;;;;;;;41.02;21.33;;;;;;;12.05;83.89;98129.28;1705629;84;21132;-67
2022/11/02 11:25:25;;;;;;;33.02;20.68;;;;;;;12.09;83.86;98135.75;1726869;82;21008;-67
2022/11/02 11:27:56;;;;;;;36.75;20.97;;;;;;;12.04;82.90;98132.83;1725514;81;21080;-67
2022/11/02 11:30:36;;;;;;;36.65;20.45;;;;;;;12.01;83.40;98137.79;1731355;81;21056;-66
2022/11/02 11:33:06;;;;;;;44.75;22.10;;;;;;;12.03;83.77;98134.61;1730294;81;21005;-67
2022/11/02 11:35:39;;;;;;;38.53;20.88;;;;;;;12.06;83.88;98136.33;1731245;81;21058;-67
2022/11/02 11:38:22;;;;;;;35.13;20.63;;;;;;;12.09;83.82;98130.92;1694506;84;21021;-67
2022/11/02 11:40:54;;;;;;;33.53;19.60;;;;;;;12.11;83.28;98141.02;1700635;83;21015;-67
2022/11/02 11:43:25;;;;;;;34.95;19.62;;;;;;;12.09;83.38;98139.73;1729613;81;21446;-66
2022/11/02 11:46:02;;;;;;;35.38;21.30;;;;;;;12.12;83.23;98141.42;1703116;84;21016;-67
2022/11/02 11:48:49;;;;;;;40.95;22.00;;;;;;;12.14;83.16;98133.81;1702518;83;21365;-67
2022/11/02 11:51:36;;;;;;;37.42;21.33;;;;;;;12.17;83.34;98149.26;1703742;82;21052;-67
2022/11/02 11:54:25;;;;;;;33.58;20.17;;;;;;;12.20;83.62;98146.52;1707155;83;21024;-66
2022/11/02 11:56:56;;;;;;;33.42;20.27;;;;;;;12.24;83.49;98145.02;1704111;83;21003;-66
2022/11/02 11:59:31;;;;;;;43.17;23.87;;;;;;;12.24;83.32;98152.10;1708420;82;21011;-67
2022/11/02 12:02:00;;;;;;;37.58;22.85;;;;;;;12.19;82.30;98150.06;1705670;84;21062;-67
2022/11/02 12:04:34;;;;;;;41.85;23.47;;;;;;;12.11;82.49;98148.55;1706922;83;21047;-67